sensor_id;sensor_type;location;lat;lon;timestamp;temperature;humidity
23267;DHT22;11802;53.160;8.214;2023-10-31T00:00:13;12.40;99.90
23267;DHT22;11802;53.160;8.214;2023-10-31T00:02:39;12.40;99.90
23267;DHT22;11802;53.160;8.214;2023-10-31T00:05:04;12.30;99.90
23267;DHT22;11802;53.160;8.214;2023-10-31T00:07:30;12.30;99.90
23267;DHT22;11802;53.160;8.214;2023-10-31T00:09:56;12.30;99.90
23267;DHT22;11802;53.160;8.214;2023-10-31T00:12:21;12.40;99.90
23267;DHT22;11802;53.160;8.214;2023-10-31T00:14:47;12.40;99.90
23267;DHT22;11802;53.160;8.214;2023-10-31T00:17:12;12.40;99.90
23267;DHT22;11802;53.160;8.214;2023-10-31T00:19:38;12.40;99.90
23267;DHT22;11802;53.160;8.214;2023-10-31T00:22:03;12.40;99.90
23267;DHT22;11802;53.160;8.214;2023-10-31T00:24:29;12.40;99.90
23267;DHT22;11802;53.160;8.214;2023-10-31T00:26:57;12.30;99.90
23267;DHT22;11802;53.160;8.214;2023-10-31T00:29:23;12.40;99.90
23267;DHT22;11802;53.160;8.214;2023-10-31T00:31:48;12.40;99.90
23267;DHT22;11802;53.160;8.214;2023-10-31T00:34:14;12.40;99.90
23267;DHT22;11802;53.160;8.214;2023-10-31T00:36:39;12.40;99.90
23267;DHT22;11802;53.160;8.214;2023-10-31T00:39:05;12.40;99.90
23267;DHT22;11802;53.160;8.214;2023-10-31T00:41:30;12.40;99.90
23267;DHT22;11802;53.160;8.214;2023-10-31T00:43:56;12.40;99.90
23267;DHT22;11802;53.160;8.214;2023-10-31T00:46:21;12.40;99.90
23267;DHT22;11802;53.160;8.214;2023-10-31T00:48:48;12.40;99.90
23267;DHT22;11802;53.160;8.214;2023-10-31T00:51:13;12.50;99.90
23267;DHT22;11802;53.160;8.214;2023-10-31T00:53:39;12.50;99.90
23267;DHT22;11802;53.160;8.214;2023-10-31T00:56:05;12.50;99.90
23267;DHT22;11802;53.160;8.214;2023-10-31T00:58:30;12.50;99.90
23267;DHT22;11802;53.160;8.214;2023-10-31T01:00:56;12.40;99.90
23267;DHT22;11802;53.160;8.214;2023-10-31T01:03:21;12.40;99.90
23267;DHT22;11802;53.160;8.214;2023-10-31T01:05:47;12.40;99.90
23267;DHT22;11802;53.160;8.214;2023-10-31T01:08:12;12.50;99.90
23267;DHT22;11802;53.160;8.214;2023-10-31T01:10:38;12.50;99.90
23267;DHT22;11802;53.160;8.214;2023-10-31T01:13:03;12.50;99.90
23267;DHT22;11802;53.160;8.214;2023-10-31T01:15:29;12.50;99.90
23267;DHT22;11802;53.160;8.214;2023-10-31T01:17:54;12.50;99.90
23267;DHT22;11802;53.160;8.214;2023-10-31T01:20:20;12.50;99.90
23267;DHT22;11802;53.160;8.214;2023-10-31T01:22:45;12.50;99.90
23267;DHT22;11802;53.160;8.214;2023-10-31T01:25:11;12.50;99.90
23267;DHT22;11802;53.160;8.214;2023-10-31T01:27:36;12.50;99.90
23267;DHT22;11802;53.160;8.214;2023-10-31T01:30:02;12.50;99.90
23267;DHT22;11802;53.160;8.214;2023-10-31T01:32:28;12.50;99.90
23267;DHT22;11802;53.160;8.214;2023-10-31T01:34:54;12.50;99.90
23267;DHT22;11802;53.160;8.214;2023-10-31T01:37:19;12.50;99.90
23267;DHT22;11802;53.160;8.214;2023-10-31T01:39:46;12.50;99.90
23267;DHT22;11802;53.160;8.214;2023-10-31T01:42:15;12.50;99.90
23267;DHT22;11802;53.160;8.214;2023-10-31T01:44:41;12.50;99.90
23267;DHT22;11802;53.160;8.214;2023-10-31T01:47:06;12.50;99.90
23267;DHT22;11802;53.160;8.214;2023-10-31T01:49:32;12.50;99.90
23267;DHT22;11802;53.160;8.214;2023-10-31T01:52:00;12.50;99.90
23267;DHT22;11802;53.160;8.214;2023-10-31T01:54:26;12.50;99.90
23267;DHT22;11802;53.160;8.214;2023-10-31T01:56:54;12.50;99.90
23267;DHT22;11802;53.160;8.214;2023-10-31T01:59:21;12.50;99.90
23267;DHT22;11802;53.160;8.214;2023-10-31T02:01:48;12.50;99.90
23267;DHT22;11802;53.160;8.214;2023-10-31T02:04:14;12.60;99.90
23267;DHT22;11802;53.160;8.214;2023-10-31T02:06:40;12.60;99.90
23267;DHT22;11802;53.160;8.214;2023-10-31T02:09:06;12.60;99.90
23267;DHT22;11802;53.160;8.214;2023-10-31T02:11:31;12.50;99.90
23267;DHT22;11802;53.160;8.214;2023-10-31T02:13:57;12.50;99.90
23267;DHT22;11802;53.160;8.214;2023-10-31T02:16:23;12.50;99.90
23267;DHT22;11802;53.160;8.214;2023-10-31T02:18:48;12.50;99.90
23267;DHT22;11802;53.160;8.214;2023-10-31T02:21:15;12.60;99.90
23267;DHT22;11802;53.160;8.214;2023-10-31T02:23:41;12.50;99.90
23267;DHT22;11802;53.160;8.214;2023-10-31T02:26:07;12.50;99.90
23267;DHT22;11802;53.160;8.214;2023-10-31T02:28:32;12.60;99.90
23267;DHT22;11802;53.160;8.214;2023-10-31T02:30:58;12.50;99.90
23267;DHT22;11802;53.160;8.214;2023-10-31T02:33:23;12.50;99.90
23267;DHT22;11802;53.160;8.214;2023-10-31T02:35:49;12.50;99.90
23267;DHT22;11802;53.160;8.214;2023-10-31T02:38:15;12.50;99.90
23267;DHT22;11802;53.160;8.214;2023-10-31T02:40:40;12.60;99.90
23267;DHT22;11802;53.160;8.214;2023-10-31T02:43:06;12.60;99.90
23267;DHT22;11802;53.160;8.214;2023-10-31T02:45:31;12.50;99.90
23267;DHT22;11802;53.160;8.214;2023-10-31T02:47:57;12.50;99.90
23267;DHT22;11802;53.160;8.214;2023-10-31T02:50:22;12.60;99.90
23267;DHT22;11802;53.160;8.214;2023-10-31T02:52:48;12.60;99.90
23267;DHT22;11802;53.160;8.214;2023-10-31T02:55:13;12.70;99.90
23267;DHT22;11802;53.160;8.214;2023-10-31T02:57:39;12.60;99.90
23267;DHT22;11802;53.160;8.214;2023-10-31T03:00:05;12.50;99.90
23267;DHT22;11802;53.160;8.214;2023-10-31T03:02:31;12.60;99.90
23267;DHT22;11802;53.160;8.214;2023-10-31T03:04:56;12.60;99.90
23267;DHT22;11802;53.160;8.214;2023-10-31T03:07:22;12.50;99.90
23267;DHT22;11802;53.160;8.214;2023-10-31T03:09:48;12.50;99.90
23267;DHT22;11802;53.160;8.214;2023-10-31T03:12:13;12.60;99.90
23267;DHT22;11802;53.160;8.214;2023-10-31T03:14:39;12.50;99.90
23267;DHT22;11802;53.160;8.214;2023-10-31T03:17:04;12.50;99.90
23267;DHT22;11802;53.160;8.214;2023-10-31T03:19:30;12.60;99.90
23267;DHT22;11802;53.160;8.214;2023-10-31T03:21:55;12.60;99.90
23267;DHT22;11802;53.160;8.214;2023-10-31T03:24:21;12.60;99.90
23267;DHT22;11802;53.160;8.214;2023-10-31T03:26:46;12.60;99.90
23267;DHT22;11802;53.160;8.214;2023-10-31T03:29:12;12.60;99.90
23267;DHT22;11802;53.160;8.214;2023-10-31T03:31:37;12.60;99.90
23267;DHT22;11802;53.160;8.214;2023-10-31T03:34:03;12.60;99.90
23267;DHT22;11802;53.160;8.214;2023-10-31T03:36:28;12.60;99.90
23267;DHT22;11802;53.160;8.214;2023-10-31T03:38:54;12.60;99.90
23267;DHT22;11802;53.160;8.214;2023-10-31T03:41:19;12.60;99.90
23267;DHT22;11802;53.160;8.214;2023-10-31T03:43:45;12.60;99.90
23267;DHT22;11802;53.160;8.214;2023-10-31T03:46:11;12.60;99.90
23267;DHT22;11802;53.160;8.214;2023-10-31T03:48:37;12.60;99.90
23267;DHT22;11802;53.160;8.214;2023-10-31T03:51:02;12.60;99.90
23267;DHT22;11802;53.160;8.214;2023-10-31T03:53:28;12.60;99.90
23267;DHT22;11802;53.160;8.214;2023-10-31T03:55:53;12.60;99.90
23267;DHT22;11802;53.160;8.214;2023-10-31T03:58:19;12.60;99.90
23267;DHT22;11802;53.160;8.214;2023-10-31T04:00:44;12.60;99.90
23267;DHT22;11802;53.160;8.214;2023-10-31T04:03:10;12.60;99.90
23267;DHT22;11802;53.160;8.214;2023-10-31T04:05:35;12.60;99.90
23267;DHT22;11802;53.160;8.214;2023-10-31T04:08:02;12.60;99.90
23267;DHT22;11802;53.160;8.214;2023-10-31T04:10:27;12.60;99.90
23267;DHT22;11802;53.160;8.214;2023-10-31T04:12:53;12.60;99.90
23267;DHT22;11802;53.160;8.214;2023-10-31T04:15:18;12.70;99.90
23267;DHT22;11802;53.160;8.214;2023-10-31T04:17:44;12.70;99.90
23267;DHT22;11802;53.160;8.214;2023-10-31T04:20:10;12.70;99.90
23267;DHT22;11802;53.160;8.214;2023-10-31T04:22:35;12.70;99.90
23267;DHT22;11802;53.160;8.214;2023-10-31T04:25:01;12.70;99.90
23267;DHT22;11802;53.160;8.214;2023-10-31T04:27:26;12.70;99.90
23267;DHT22;11802;53.160;8.214;2023-10-31T04:29:52;12.70;99.90
23267;DHT22;11802;53.160;8.214;2023-10-31T04:32:17;12.70;99.90
23267;DHT22;11802;53.160;8.214;2023-10-31T04:34:43;12.70;99.90
23267;DHT22;11802;53.160;8.214;2023-10-31T04:37:08;12.70;99.90
23267;DHT22;11802;53.160;8.214;2023-10-31T04:39:34;12.70;99.90
23267;DHT22;11802;53.160;8.214;2023-10-31T04:42:00;12.70;99.90
23267;DHT22;11802;53.160;8.214;2023-10-31T04:44:25;12.70;99.90
23267;DHT22;11802;53.160;8.214;2023-10-31T04:46:51;12.60;99.90
23267;DHT22;11802;53.160;8.214;2023-10-31T04:49:17;12.60;99.90
23267;DHT22;11802;53.160;8.214;2023-10-31T04:51:42;12.60;99.90
23267;DHT22;11802;53.160;8.214;2023-10-31T04:54:08;12.60;99.90
23267;DHT22;11802;53.160;8.214;2023-10-31T04:56:34;12.60;99.90
23267;DHT22;11802;53.160;8.214;2023-10-31T04:58:59;12.60;99.90
23267;DHT22;11802;53.160;8.214;2023-10-31T05:01:25;12.60;99.90
23267;DHT22;11802;53.160;8.214;2023-10-31T05:03:53;12.50;99.90
23267;DHT22;11802;53.160;8.214;2023-10-31T05:06:22;12.40;99.90
23267;DHT22;11802;53.160;8.214;2023-10-31T05:08:49;12.10;99.90
23267;DHT22;11802;53.160;8.214;2023-10-31T05:11:17;12.00;99.90
23267;DHT22;11802;53.160;8.214;2023-10-31T05:13:44;11.80;99.90
23267;DHT22;11802;53.160;8.214;2023-10-31T05:16:10;11.70;99.90
23267;DHT22;11802;53.160;8.214;2023-10-31T05:18:37;11.60;99.90
23267;DHT22;11802;53.160;8.214;2023-10-31T05:21:04;11.60;99.90
23267;DHT22;11802;53.160;8.214;2023-10-31T05:23:30;11.50;99.90
23267;DHT22;11802;53.160;8.214;2023-10-31T05:25:55;11.50;99.90
23267;DHT22;11802;53.160;8.214;2023-10-31T05:28:21;11.40;99.90
23267;DHT22;11802;53.160;8.214;2023-10-31T05:30:47;11.40;99.90
23267;DHT22;11802;53.160;8.214;2023-10-31T05:33:15;11.30;99.90
23267;DHT22;11802;53.160;8.214;2023-10-31T05:35:41;11.30;99.90
23267;DHT22;11802;53.160;8.214;2023-10-31T05:38:06;11.30;99.90
23267;DHT22;11802;53.160;8.214;2023-10-31T05:40:32;11.20;99.90
23267;DHT22;11802;53.160;8.214;2023-10-31T05:43:03;11.20;99.90
23267;DHT22;11802;53.160;8.214;2023-10-31T05:45:30;11.20;99.90
23267;DHT22;11802;53.160;8.214;2023-10-31T05:47:55;11.20;99.90
23267;DHT22;11802;53.160;8.214;2023-10-31T05:50:21;11.20;99.90
23267;DHT22;11802;53.160;8.214;2023-10-31T05:52:47;11.10;99.90
23267;DHT22;11802;53.160;8.214;2023-10-31T05:55:13;11.10;99.90
23267;DHT22;11802;53.160;8.214;2023-10-31T05:57:38;11.10;99.90
23267;DHT22;11802;53.160;8.214;2023-10-31T06:00:05;11.10;99.90
23267;DHT22;11802;53.160;8.214;2023-10-31T06:02:30;11.10;99.90
23267;DHT22;11802;53.160;8.214;2023-10-31T06:04:56;11.10;99.90
23267;DHT22;11802;53.160;8.214;2023-10-31T06:07:22;11.10;99.90
23267;DHT22;11802;53.160;8.214;2023-10-31T06:09:47;11.10;99.90
23267;DHT22;11802;53.160;8.214;2023-10-31T06:12:13;11.00;99.90
23267;DHT22;11802;53.160;8.214;2023-10-31T06:14:38;11.00;99.90
23267;DHT22;11802;53.160;8.214;2023-10-31T06:17:04;11.00;99.90
23267;DHT22;11802;53.160;8.214;2023-10-31T06:19:32;11.00;99.90
23267;DHT22;11802;53.160;8.214;2023-10-31T06:21:58;11.00;99.90
23267;DHT22;11802;53.160;8.214;2023-10-31T06:24:23;10.90;99.90
23267;DHT22;11802;53.160;8.214;2023-10-31T06:26:49;10.90;99.90
23267;DHT22;11802;53.160;8.214;2023-10-31T06:29:14;10.90;99.90
23267;DHT22;11802;53.160;8.214;2023-10-31T06:31:40;10.90;99.90
23267;DHT22;11802;53.160;8.214;2023-10-31T06:34:06;10.90;99.90
23267;DHT22;11802;53.160;8.214;2023-10-31T06:36:31;10.90;99.90
23267;DHT22;11802;53.160;8.214;2023-10-31T06:38:57;10.90;99.90
23267;DHT22;11802;53.160;8.214;2023-10-31T06:41:24;10.90;99.90
23267;DHT22;11802;53.160;8.214;2023-10-31T06:43:49;10.90;99.90
23267;DHT22;11802;53.160;8.214;2023-10-31T06:46:15;10.90;99.90
23267;DHT22;11802;53.160;8.214;2023-10-31T06:48:41;10.90;99.90
23267;DHT22;11802;53.160;8.214;2023-10-31T06:51:07;10.90;99.90
23267;DHT22;11802;53.160;8.214;2023-10-31T06:53:32;10.80;99.90
23267;DHT22;11802;53.160;8.214;2023-10-31T06:55:58;10.90;99.90
23267;DHT22;11802;53.160;8.214;2023-10-31T06:58:23;10.90;99.90
23267;DHT22;11802;53.160;8.214;2023-10-31T07:00:49;10.90;99.90
23267;DHT22;11802;53.160;8.214;2023-10-31T07:03:14;10.80;99.90
23267;DHT22;11802;53.160;8.214;2023-10-31T07:05:41;10.80;99.90
23267;DHT22;11802;53.160;8.214;2023-10-31T07:08:07;10.80;99.90
23267;DHT22;11802;53.160;8.214;2023-10-31T07:10:33;10.80;99.90
23267;DHT22;11802;53.160;8.214;2023-10-31T07:12:59;10.80;99.90
23267;DHT22;11802;53.160;8.214;2023-10-31T07:15:25;10.70;99.90
23267;DHT22;11802;53.160;8.214;2023-10-31T07:17:51;10.80;99.90
23267;DHT22;11802;53.160;8.214;2023-10-31T07:20:16;10.70;99.90
23267;DHT22;11802;53.160;8.214;2023-10-31T07:22:42;10.80;99.90
23267;DHT22;11802;53.160;8.214;2023-10-31T07:25:08;10.80;99.90
23267;DHT22;11802;53.160;8.214;2023-10-31T07:27:34;10.80;99.90
23267;DHT22;11802;53.160;8.214;2023-10-31T07:29:59;10.80;99.90
23267;DHT22;11802;53.160;8.214;2023-10-31T07:32:25;10.80;99.90
23267;DHT22;11802;53.160;8.214;2023-10-31T07:34:51;10.80;99.90
23267;DHT22;11802;53.160;8.214;2023-10-31T07:37:17;10.80;99.90
23267;DHT22;11802;53.160;8.214;2023-10-31T07:39:43;10.80;99.90
23267;DHT22;11802;53.160;8.214;2023-10-31T07:42:08;10.80;99.90
23267;DHT22;11802;53.160;8.214;2023-10-31T07:44:34;10.80;99.90
23267;DHT22;11802;53.160;8.214;2023-10-31T07:47:00;10.90;99.90
23267;DHT22;11802;53.160;8.214;2023-10-31T07:49:25;10.90;99.90
23267;DHT22;11802;53.160;8.214;2023-10-31T07:51:51;10.90;99.90
23267;DHT22;11802;53.160;8.214;2023-10-31T07:54:16;10.90;99.90
23267;DHT22;11802;53.160;8.214;2023-10-31T07:56:43;11.00;99.90
23267;DHT22;11802;53.160;8.214;2023-10-31T07:59:09;11.00;99.90
23267;DHT22;11802;53.160;8.214;2023-10-31T08:01:35;11.00;99.90
23267;DHT22;11802;53.160;8.214;2023-10-31T08:04:00;11.10;99.90
23267;DHT22;11802;53.160;8.214;2023-10-31T08:06:26;11.00;99.90
23267;DHT22;11802;53.160;8.214;2023-10-31T08:08:51;11.10;99.90
23267;DHT22;11802;53.160;8.214;2023-10-31T08:11:17;11.10;99.90
23267;DHT22;11802;53.160;8.214;2023-10-31T08:13:43;11.10;99.90
23267;DHT22;11802;53.160;8.214;2023-10-31T08:16:09;11.10;99.90
23267;DHT22;11802;53.160;8.214;2023-10-31T08:18:34;11.10;99.90
23267;DHT22;11802;53.160;8.214;2023-10-31T08:21:00;11.10;99.90
23267;DHT22;11802;53.160;8.214;2023-10-31T08:23:26;11.10;99.90
23267;DHT22;11802;53.160;8.214;2023-10-31T08:25:52;11.20;99.90
23267;DHT22;11802;53.160;8.214;2023-10-31T08:28:17;11.10;99.90
23267;DHT22;11802;53.160;8.214;2023-10-31T08:30:43;11.10;99.90
23267;DHT22;11802;53.160;8.214;2023-10-31T08:33:08;11.10;99.90
23267;DHT22;11802;53.160;8.214;2023-10-31T08:35:34;11.10;99.90
23267;DHT22;11802;53.160;8.214;2023-10-31T08:38:00;11.10;99.90
23267;DHT22;11802;53.160;8.214;2023-10-31T08:40:25;11.10;99.90
23267;DHT22;11802;53.160;8.214;2023-10-31T08:42:51;11.20;99.90
23267;DHT22;11802;53.160;8.214;2023-10-31T08:45:17;11.20;99.90
23267;DHT22;11802;53.160;8.214;2023-10-31T08:47:43;11.20;99.90
23267;DHT22;11802;53.160;8.214;2023-10-31T08:50:08;11.30;99.90
23267;DHT22;11802;53.160;8.214;2023-10-31T08:52:34;11.30;99.90
23267;DHT22;11802;53.160;8.214;2023-10-31T08:55:00;11.30;99.90
23267;DHT22;11802;53.160;8.214;2023-10-31T08:57:25;11.40;99.90
23267;DHT22;11802;53.160;8.214;2023-10-31T08:59:51;11.40;99.90
23267;DHT22;11802;53.160;8.214;2023-10-31T09:02:16;11.40;99.90
23267;DHT22;11802;53.160;8.214;2023-10-31T09:04:42;11.50;99.90
23267;DHT22;11802;53.160;8.214;2023-10-31T09:07:08;11.50;99.90
23267;DHT22;11802;53.160;8.214;2023-10-31T09:09:33;11.50;99.90
23267;DHT22;11802;53.160;8.214;2023-10-31T09:11:59;11.60;99.90
23267;DHT22;11802;53.160;8.214;2023-10-31T09:14:24;11.70;99.90
23267;DHT22;11802;53.160;8.214;2023-10-31T09:16:50;11.70;99.90
23267;DHT22;11802;53.160;8.214;2023-10-31T09:19:15;11.70;99.90
23267;DHT22;11802;53.160;8.214;2023-10-31T09:21:40;11.70;99.90
23267;DHT22;11802;53.160;8.214;2023-10-31T09:24:07;11.60;99.90
23267;DHT22;11802;53.160;8.214;2023-10-31T09:26:33;11.60;99.90
23267;DHT22;11802;53.160;8.214;2023-10-31T09:28:59;11.60;99.90
23267;DHT22;11802;53.160;8.214;2023-10-31T09:31:24;11.60;99.90
23267;DHT22;11802;53.160;8.214;2023-10-31T09:33:50;11.60;99.90
23267;DHT22;11802;53.160;8.214;2023-10-31T09:36:15;11.70;99.90
23267;DHT22;11802;53.160;8.214;2023-10-31T09:38:41;11.70;99.90
23267;DHT22;11802;53.160;8.214;2023-10-31T09:41:06;11.70;99.90
23267;DHT22;11802;53.160;8.214;2023-10-31T09:43:32;11.80;99.90
23267;DHT22;11802;53.160;8.214;2023-10-31T09:45:58;11.80;99.90
23267;DHT22;11802;53.160;8.214;2023-10-31T09:48:26;11.90;99.90
23267;DHT22;11802;53.160;8.214;2023-10-31T09:50:52;12.00;99.90
23267;DHT22;11802;53.160;8.214;2023-10-31T09:53:19;12.10;99.90
23267;DHT22;11802;53.160;8.214;2023-10-31T09:55:46;12.20;99.90
23267;DHT22;11802;53.160;8.214;2023-10-31T09:58:12;12.20;99.90
23267;DHT22;11802;53.160;8.214;2023-10-31T10:00:37;12.10;99.90
23267;DHT22;11802;53.160;8.214;2023-10-31T10:03:07;12.10;99.90
23267;DHT22;11802;53.160;8.214;2023-10-31T10:05:35;12.10;99.90
23267;DHT22;11802;53.160;8.214;2023-10-31T10:08:00;12.10;99.90
23267;DHT22;11802;53.160;8.214;2023-10-31T10:10:26;12.10;99.90
23267;DHT22;11802;53.160;8.214;2023-10-31T10:12:52;12.10;99.90
23267;DHT22;11802;53.160;8.214;2023-10-31T10:15:18;12.30;99.90
23267;DHT22;11802;53.160;8.214;2023-10-31T10:17:51;12.30;99.90
23267;DHT22;11802;53.160;8.214;2023-10-31T10:20:17;12.20;99.90
23267;DHT22;11802;53.160;8.214;2023-10-31T10:22:44;12.10;99.90
23267;DHT22;11802;53.160;8.214;2023-10-31T10:25:11;12.10;99.90
23267;DHT22;11802;53.160;8.214;2023-10-31T10:27:44;12.20;99.90
23267;DHT22;11802;53.160;8.214;2023-10-31T10:30:10;12.30;99.90
23267;DHT22;11802;53.160;8.214;2023-10-31T10:32:36;12.30;99.90
23267;DHT22;11802;53.160;8.214;2023-10-31T10:35:02;12.10;99.90
23267;DHT22;11802;53.160;8.214;2023-10-31T10:37:27;12.10;99.90
23267;DHT22;11802;53.160;8.214;2023-10-31T10:39:56;12.20;99.90
23267;DHT22;11802;53.160;8.214;2023-10-31T10:45:05;12.30;99.90
23267;DHT22;11802;53.160;8.214;2023-10-31T10:47:34;12.30;99.90
23267;DHT22;11802;53.160;8.214;2023-10-31T10:50:04;12.40;99.90
23267;DHT22;11802;53.160;8.214;2023-10-31T10:52:38;12.40;99.90
23267;DHT22;11802;53.160;8.214;2023-10-31T10:55:17;12.50;99.90
23267;DHT22;11802;53.160;8.214;2023-10-31T10:58:05;12.60;99.90
23267;DHT22;11802;53.160;8.214;2023-10-31T11:00:31;12.60;99.90
23267;DHT22;11802;53.160;8.214;2023-10-31T11:02:57;12.80;99.90
23267;DHT22;11802;53.160;8.214;2023-10-31T11:05:26;12.90;99.90
23267;DHT22;11802;53.160;8.214;2023-10-31T11:07:52;13.00;99.90
23267;DHT22;11802;53.160;8.214;2023-10-31T11:10:19;13.00;99.90
23267;DHT22;11802;53.160;8.214;2023-10-31T11:12:44;13.20;99.90
23267;DHT22;11802;53.160;8.214;2023-10-31T11:15:13;13.30;99.90
23267;DHT22;11802;53.160;8.214;2023-10-31T11:17:42;13.40;99.90
23267;DHT22;11802;53.160;8.214;2023-10-31T11:20:10;13.40;99.90
23267;DHT22;11802;53.160;8.214;2023-10-31T11:22:40;13.50;99.90
23267;DHT22;11802;53.160;8.214;2023-10-31T11:25:10;13.60;99.90
23267;DHT22;11802;53.160;8.214;2023-10-31T11:27:36;13.70;99.90
23267;DHT22;11802;53.160;8.214;2023-10-31T11:30:05;13.90;99.90
23267;DHT22;11802;53.160;8.214;2023-10-31T11:32:32;14.00;99.90
23267;DHT22;11802;53.160;8.214;2023-10-31T11:34:59;13.80;99.90
23267;DHT22;11802;53.160;8.214;2023-10-31T11:37:27;13.80;99.90
23267;DHT22;11802;53.160;8.214;2023-10-31T11:42:53;13.60;99.90
23267;DHT22;11802;53.160;8.214;2023-10-31T11:45:28;13.30;99.90
23267;DHT22;11802;53.160;8.214;2023-10-31T11:47:54;12.80;99.90
23267;DHT22;11802;53.160;8.214;2023-10-31T11:50:21;12.60;99.90
23267;DHT22;11802;53.160;8.214;2023-10-31T11:52:59;12.40;99.90
23267;DHT22;11802;53.160;8.214;2023-10-31T11:55:25;12.20;99.90
23267;DHT22;11802;53.160;8.214;2023-10-31T11:57:50;12.10;99.90
23267;DHT22;11802;53.160;8.214;2023-10-31T12:00:23;12.10;99.90
23267;DHT22;11802;53.160;8.214;2023-10-31T12:02:59;12.10;99.90
23267;DHT22;11802;53.160;8.214;2023-10-31T12:05:25;12.20;99.90
23267;DHT22;11802;53.160;8.214;2023-10-31T12:07:51;12.20;99.90
23267;DHT22;11802;53.160;8.214;2023-10-31T12:10:24;12.20;99.90
23267;DHT22;11802;53.160;8.214;2023-10-31T12:12:50;12.20;99.90
23267;DHT22;11802;53.160;8.214;2023-10-31T12:15:16;12.30;99.90
23267;DHT22;11802;53.160;8.214;2023-10-31T12:17:41;12.30;99.90
23267;DHT22;11802;53.160;8.214;2023-10-31T12:20:08;12.40;99.90
23267;DHT22;11802;53.160;8.214;2023-10-31T12:22:34;12.50;99.90
23267;DHT22;11802;53.160;8.214;2023-10-31T12:25:04;12.40;99.90
23267;DHT22;11802;53.160;8.214;2023-10-31T12:27:44;12.30;99.90
23267;DHT22;11802;53.160;8.214;2023-10-31T12:30:11;12.30;99.90
23267;DHT22;11802;53.160;8.214;2023-10-31T12:32:38;12.10;99.90
23267;DHT22;11802;53.160;8.214;2023-10-31T12:35:04;12.10;99.90
23267;DHT22;11802;53.160;8.214;2023-10-31T12:37:30;12.10;99.90
23267;DHT22;11802;53.160;8.214;2023-10-31T12:39:56;12.10;99.90
23267;DHT22;11802;53.160;8.214;2023-10-31T12:42:23;12.10;99.90
23267;DHT22;11802;53.160;8.214;2023-10-31T12:44:54;12.00;99.90
23267;DHT22;11802;53.160;8.214;2023-10-31T12:47:23;12.00;99.90
23267;DHT22;11802;53.160;8.214;2023-10-31T12:50:36;12.00;99.90
23267;DHT22;11802;53.160;8.214;2023-10-31T12:52:55;12.00;99.90
23267;DHT22;11802;53.160;8.214;2023-10-31T12:55:24;11.90;99.90
23267;DHT22;11802;53.160;8.214;2023-10-31T12:57:50;11.80;99.90
23267;DHT22;11802;53.160;8.214;2023-10-31T13:00:18;11.80;99.90
23267;DHT22;11802;53.160;8.214;2023-10-31T13:02:50;11.80;99.90
23267;DHT22;11802;53.160;8.214;2023-10-31T13:05:16;11.80;99.90
23267;DHT22;11802;53.160;8.214;2023-10-31T13:07:52;11.80;99.90
23267;DHT22;11802;53.160;8.214;2023-10-31T13:10:19;12.00;99.90
23267;DHT22;11802;53.160;8.214;2023-10-31T13:12:45;12.10;99.90
23267;DHT22;11802;53.160;8.214;2023-10-31T13:15:12;12.20;99.90
23267;DHT22;11802;53.160;8.214;2023-10-31T13:17:38;12.10;99.90
23267;DHT22;11802;53.160;8.214;2023-10-31T13:20:08;12.00;99.90
23267;DHT22;11802;53.160;8.214;2023-10-31T13:22:35;11.90;99.90
23267;DHT22;11802;53.160;8.214;2023-10-31T13:25:02;11.90;99.90
23267;DHT22;11802;53.160;8.214;2023-10-31T13:27:31;11.80;99.90
23267;DHT22;11802;53.160;8.214;2023-10-31T13:29:57;11.90;99.90
23267;DHT22;11802;53.160;8.214;2023-10-31T13:32:22;11.90;99.90
23267;DHT22;11802;53.160;8.214;2023-10-31T13:34:48;11.80;99.90
23267;DHT22;11802;53.160;8.214;2023-10-31T13:37:14;11.80;99.90
23267;DHT22;11802;53.160;8.214;2023-10-31T13:39:39;11.60;99.90
23267;DHT22;11802;53.160;8.214;2023-10-31T13:42:05;11.40;99.90
23267;DHT22;11802;53.160;8.214;2023-10-31T13:44:31;11.30;99.90
23267;DHT22;11802;53.160;8.214;2023-10-31T13:46:56;11.20;99.90
23267;DHT22;11802;53.160;8.214;2023-10-31T13:49:22;11.10;99.90
23267;DHT22;11802;53.160;8.214;2023-10-31T13:51:47;11.00;99.90
23267;DHT22;11802;53.160;8.214;2023-10-31T13:54:14;11.00;99.90
23267;DHT22;11802;53.160;8.214;2023-10-31T13:56:40;11.10;99.90
23267;DHT22;11802;53.160;8.214;2023-10-31T13:59:05;11.10;99.90
23267;DHT22;11802;53.160;8.214;2023-10-31T14:01:31;11.20;99.90
23267;DHT22;11802;53.160;8.214;2023-10-31T14:03:56;11.40;99.90
23267;DHT22;11802;53.160;8.214;2023-10-31T14:06:22;11.40;99.90
23267;DHT22;11802;53.160;8.214;2023-10-31T14:08:47;11.40;99.90
23267;DHT22;11802;53.160;8.214;2023-10-31T14:11:13;11.50;99.90
23267;DHT22;11802;53.160;8.214;2023-10-31T14:13:38;11.50;99.90
23267;DHT22;11802;53.160;8.214;2023-10-31T14:16:06;11.40;99.90
23267;DHT22;11802;53.160;8.214;2023-10-31T14:18:31;11.50;99.90
23267;DHT22;11802;53.160;8.214;2023-10-31T14:20:57;11.60;99.90
23267;DHT22;11802;53.160;8.214;2023-10-31T14:23:23;11.60;99.90
23267;DHT22;11802;53.160;8.214;2023-10-31T14:25:50;11.60;99.90
23267;DHT22;11802;53.160;8.214;2023-10-31T14:28:15;11.60;99.90
23267;DHT22;11802;53.160;8.214;2023-10-31T14:30:41;11.40;99.90
23267;DHT22;11802;53.160;8.214;2023-10-31T14:33:06;11.30;99.90
23267;DHT22;11802;53.160;8.214;2023-10-31T14:35:32;11.20;99.90
23267;DHT22;11802;53.160;8.214;2023-10-31T14:37:57;11.10;99.90
23267;DHT22;11802;53.160;8.214;2023-10-31T14:40:23;11.00;99.90
23267;DHT22;11802;53.160;8.214;2023-10-31T14:42:49;11.00;99.90
23267;DHT22;11802;53.160;8.214;2023-10-31T14:45:15;11.00;99.90
23267;DHT22;11802;53.160;8.214;2023-10-31T14:47:40;10.90;99.90
23267;DHT22;11802;53.160;8.214;2023-10-31T14:50:06;10.90;99.90
23267;DHT22;11802;53.160;8.214;2023-10-31T14:52:32;10.80;99.90
23267;DHT22;11802;53.160;8.214;2023-10-31T14:54:57;10.80;99.90
23267;DHT22;11802;53.160;8.214;2023-10-31T14:57:23;10.70;99.90
23267;DHT22;11802;53.160;8.214;2023-10-31T14:59:49;10.50;99.90
23267;DHT22;11802;53.160;8.214;2023-10-31T15:02:14;10.40;99.90
23267;DHT22;11802;53.160;8.214;2023-10-31T15:04:40;10.30;99.90
23267;DHT22;11802;53.160;8.214;2023-10-31T15:07:05;10.20;99.90
23267;DHT22;11802;53.160;8.214;2023-10-31T15:09:31;10.10;99.90
23267;DHT22;11802;53.160;8.214;2023-10-31T15:11:56;10.00;99.90
23267;DHT22;11802;53.160;8.214;2023-10-31T15:14:22;9.90;99.90
23267;DHT22;11802;53.160;8.214;2023-10-31T15:16:47;9.80;99.90
23267;DHT22;11802;53.160;8.214;2023-10-31T15:19:13;9.80;99.90
23267;DHT22;11802;53.160;8.214;2023-10-31T15:21:38;9.60;99.90
23267;DHT22;11802;53.160;8.214;2023-10-31T15:24:04;9.60;99.90
23267;DHT22;11802;53.160;8.214;2023-10-31T15:26:33;9.40;99.90
23267;DHT22;11802;53.160;8.214;2023-10-31T15:28:58;9.40;99.90